Time;durP1;ratioP1;P1;durP2;ratioP2;P2;SDS_P1;SDS_P2;PMS_P1;PMS_P2;Temp;Humidity;BMP_temperature;BMP_pressure;BME280_temperature;BME280_humidity;BME280_pressure;Samples;Min_cycle;Max_cycle;Signal;HPM_P1;HPM_P2
2022/02/14 00:00:33;;;;;;;7.40;3.53;;;15.50;57.90;;;;;;4189628;28;20052;-59
2022/02/14 00:02:57;;;;;;;10.05;3.60;;;15.50;57.80;;;;;;4193939;28;20055;-60
2022/02/14 00:05:19;;;;;;;10.30;3.95;;;15.50;57.90;;;;;;4200596;28;20051;-59
2022/02/14 00:07:42;;;;;;;9.85;3.75;;;15.50;57.80;;;;;;4210509;28;20052;-59
2022/02/14 00:10:06;;;;;;;6.40;4.25;;;15.40;57.70;;;;;;4201566;28;20055;-59
2022/02/14 00:12:28;;;;;;;6.25;3.45;;;15.40;57.90;;;;;;4193542;28;20468;-59
2022/02/14 00:14:50;;;;;;;6.95;3.22;;;15.40;58.30;;;;;;4193532;28;20044;-59
2022/02/14 00:17:13;;;;;;;7.88;3.65;;;15.40;58.20;;;;;;4193316;28;20147;-59
2022/02/14 00:19:36;;;;;;;7.05;3.50;;;15.40;58.20;;;;;;4193496;28;20051;-60
2022/02/14 00:21:58;;;;;;;4.13;3.20;;;15.40;58.30;;;;;;4198884;28;20055;-59
2022/02/14 00:24:20;;;;;;;8.70;3.72;;;15.30;58.40;;;;;;4210601;28;20085;-59
2022/02/14 00:26:42;;;;;;;9.93;4.07;;;15.30;58.30;;;;;;4175714;28;20049;-59
2022/02/14 00:29:05;;;;;;;6.18;3.55;;;15.30;58.40;;;;;;4177141;28;20049;-59
2022/02/14 00:31:27;;;;;;;8.32;3.53;;;15.30;58.20;;;;;;4193305;28;20829;-59
2022/02/14 00:33:49;;;;;;;12.93;3.97;;;15.30;59.00;;;;;;4200235;28;20039;-59
2022/02/14 00:36:14;;;;;;;7.85;3.50;;;15.30;58.50;;;;;;4208035;28;20134;-60
2022/02/14 00:38:36;;;;;;;6.07;3.35;;;15.30;58.70;;;;;;4211871;28;20109;-60
2022/02/14 00:41:00;;;;;;;10.38;3.63;;;15.30;58.50;;;;;;4211055;27;20385;-58
2022/02/14 00:43:22;;;;;;;5.43;3.47;;;15.20;58.80;;;;;;4207563;28;20129;-59
2022/02/14 00:45:45;;;;;;;9.13;3.85;;;15.20;58.70;;;;;;4209740;28;20561;-59
2022/02/14 00:48:08;;;;;;;7.15;3.50;;;15.30;58.70;;;;;;4209462;28;20109;-59
2022/02/14 00:50:30;;;;;;;7.28;3.60;;;15.20;58.60;;;;;;4209696;28;20081;-59
2022/02/14 00:52:53;;;;;;;7.13;3.40;;;15.20;58.60;;;;;;4205919;28;20122;-59
2022/02/14 00:55:18;;;;;;;5.03;3.20;;;15.20;58.70;;;;;;4193129;28;20090;-59
2022/02/14 00:57:40;;;;;;;5.38;3.35;;;15.20;58.90;;;;;;4214134;28;20387;-59
2022/02/14 01:00:05;;;;;;;5.57;3.10;;;15.20;59.00;;;;;;4209914;27;20048;-59
2022/02/14 01:02:27;;;;;;;6.07;4.18;;;15.20;59.10;;;;;;4209770;28;20075;-59
2022/02/14 01:04:49;;;;;;;6.35;3.20;;;15.20;59.20;;;;;;4209585;28;20415;-59
2022/02/14 01:07:11;;;;;;;4.45;3.35;;;15.20;59.00;;;;;;4192878;28;20052;-60
2022/02/14 01:09:35;;;;;;;5.88;3.08;;;15.20;58.90;;;;;;4192905;28;20135;-59
2022/02/14 01:11:58;;;;;;;9.32;3.70;;;15.10;59.20;;;;;;4192589;28;20052;-59
2022/02/14 01:14:20;;;;;;;7.28;3.70;;;15.10;59.30;;;;;;4207445;28;20135;-59
2022/02/14 01:16:42;;;;;;;8.50;3.38;;;15.20;59.20;;;;;;4209090;28;20124;-60
2022/02/14 01:19:04;;;;;;;6.00;3.08;;;15.10;59.30;;;;;;4209617;28;20071;-60
2022/02/14 01:21:26;;;;;;;4.68;3.10;;;15.10;59.20;;;;;;4223119;28;20143;-59
2022/02/14 01:23:48;;;;;;;4.80;3.08;;;15.10;59.60;;;;;;4209391;28;20047;-60
2022/02/14 01:26:12;;;;;;;7.72;3.40;;;15.10;59.40;;;;;;4208999;28;20086;-60
2022/02/14 01:28:34;;;;;;;5.68;3.30;;;15.10;59.40;;;;;;4209351;28;20105;-59
2022/02/14 01:30:56;;;;;;;4.38;3.00;;;15.10;59.30;;;;;;4210382;28;20047;-60
2022/02/14 01:33:18;;;;;;;13.77;3.75;;;15.10;59.40;;;;;;4192721;28;20492;-59
2022/02/14 01:35:40;;;;;;;9.98;3.40;;;15.10;59.40;;;;;;4192665;28;20089;-60
2022/02/14 01:38:03;;;;;;;11.05;3.50;;;15.10;59.30;;;;;;4192436;28;20071;-60
2022/02/14 01:40:25;;;;;;;6.53;3.10;;;15.10;59.30;;;;;;4191127;28;20538;-59
2022/02/14 01:42:48;;;;;;;6.80;3.28;;;15.10;59.50;;;;;;4205733;28;20403;-60
2022/02/14 01:45:12;;;;;;;7.13;3.45;;;15.00;59.40;;;;;;4209172;28;20054;-60
2022/02/14 01:47:34;;;;;;;4.43;3.08;;;15.00;59.30;;;;;;4212021;28;20430;-60
2022/02/14 01:49:58;;;;;;;5.03;3.50;;;15.00;59.30;;;;;;4225777;27;20090;-60
2022/02/14 01:52:22;;;;;;;7.18;3.50;;;15.00;59.50;;;;;;4216198;28;20055;-59
2022/02/14 01:54:45;;;;;;;4.90;3.10;;;15.00;59.40;;;;;;4209411;28;20059;-60
2022/02/14 01:57:09;;;;;;;7.82;3.50;;;15.00;59.70;;;;;;4209120;28;20109;-59
2022/02/14 01:59:34;;;;;;;6.93;3.65;;;15.00;59.80;;;;;;4209207;28;20074;-59
2022/02/14 02:01:58;;;;;;;6.97;3.08;;;15.00;59.60;;;;;;4208958;28;20070;-60
2022/02/14 02:04:20;;;;;;;5.13;3.15;;;15.00;59.50;;;;;;4210877;28;20050;-60
2022/02/14 02:06:43;;;;;;;9.02;3.30;;;15.00;59.50;;;;;;4208950;28;20051;-60
2022/02/14 02:09:05;;;;;;;8.85;3.95;;;15.00;59.70;;;;;;4225773;27;20055;-59
2022/02/14 02:14:06;;;;;;;5.25;3.40;;;15.00;59.90;;;;;;4206042;28;20048;-60
2022/02/14 02:16:30;;;;;;;7.82;2.80;;;15.00;60.00;;;;;;4192333;28;20056;-60
2022/02/14 02:18:52;;;;;;;5.20;3.38;;;15.00;60.10;;;;;;4192418;28;20059;-59
2022/02/14 02:21:14;;;;;;;6.82;3.50;;;14.90;60.00;;;;;;4191419;28;20853;-59
2022/02/14 02:23:40;;;;;;;7.05;3.20;;;15.00;59.80;;;;;;4225739;27;20487;-60
2022/02/14 02:26:04;;;;;;;10.25;3.28;;;15.00;59.90;;;;;;4225201;28;20814;-60
2022/02/14 02:28:26;;;;;;;10.65;4.30;;;15.00;59.90;;;;;;4208839;28;20055;-59
2022/02/14 02:30:48;;;;;;;6.75;3.85;;;14.90;60.10;;;;;;4197408;28;20396;-60
2022/02/14 02:33:10;;;;;;;5.78;2.95;;;14.90;59.80;;;;;;4192326;28;20048;-59
2022/02/14 02:35:32;;;;;;;6.25;3.30;;;14.90;59.90;;;;;;4175603;28;20501;-60
2022/02/14 02:37:55;;;;;;;7.25;3.42;;;14.90;59.90;;;;;;4176490;28;20052;-59
2022/02/14 02:40:17;;;;;;;6.63;3.10;;;14.90;60.20;;;;;;4185113;28;20060;-60
2022/02/14 02:42:41;;;;;;;5.03;3.20;;;14.90;60.40;;;;;;4195166;28;20048;-60
2022/02/14 02:45:03;;;;;;;8.00;2.95;;;14.90;60.30;;;;;;4194923;28;20072;-59
2022/02/14 02:47:27;;;;;;;5.43;3.50;;;14.90;60.40;;;;;;4194810;28;20048;-59
2022/02/14 02:49:50;;;;;;;6.68;3.70;;;14.90;60.20;;;;;;4194646;28;20052;-59
2022/02/14 02:52:15;;;;;;;9.55;3.50;;;14.90;60.40;;;;;;4194598;28;20049;-59
2022/02/14 02:54:37;;;;;;;8.60;3.33;;;14.90;60.30;;;;;;4193567;28;20122;-59
2022/02/14 02:57:00;;;;;;;8.20;3.58;;;14.80;60.40;;;;;;4211249;28;20121;-60
2022/02/14 02:59:26;;;;;;;6.88;3.47;;;14.90;60.50;;;;;;4211048;28;20591;-59
2022/02/14 03:01:48;;;;;;;7.10;2.92;;;14.90;60.70;;;;;;4219480;27;20043;-60
2022/02/14 03:04:12;;;;;;;7.45;2.80;;;14.90;60.80;;;;;;4227972;27;20387;-60
2022/02/14 03:06:34;;;;;;;6.93;3.20;;;14.80;61.60;;;;;;4228486;27;20052;-60
2022/02/14 03:08:57;;;;;;;8.27;3.85;;;14.80;60.50;;;;;;4211489;28;20779;-60
2022/02/14 03:11:19;;;;;;;7.93;3.00;;;14.80;60.70;;;;;;4190852;28;20236;-60
2022/02/14 03:13:42;;;;;;;5.95;2.95;;;14.80;60.60;;;;;;4194615;28;20055;-59
2022/02/14 03:16:05;;;;;;;4.93;2.78;;;14.80;60.60;;;;;;4200210;28;20149;-59
2022/02/14 03:18:27;;;;;;;5.97;3.28;;;14.80;60.90;;;;;;4211279;28;20129;-59
2022/02/14 03:20:49;;;;;;;5.28;2.83;;;14.80;61.00;;;;;;4199817;28;20058;-59
2022/02/14 03:23:11;;;;;;;5.15;2.88;;;14.80;60.80;;;;;;4211302;28;20059;-59
2022/02/14 03:25:34;;;;;;;5.80;3.05;;;14.80;60.80;;;;;;4211478;28;20047;-59
2022/02/14 03:27:56;;;;;;;7.63;2.70;;;14.80;61.00;;;;;;4211329;28;20068;-59
2022/02/14 03:30:18;;;;;;;7.20;2.72;;;14.80;60.90;;;;;;4219395;27;20502;-59
2022/02/14 03:32:42;;;;;;;8.68;3.10;;;14.80;61.00;;;;;;4215896;28;20479;-59
2022/02/14 03:35:04;;;;;;;6.40;3.38;;;14.80;61.00;;;;;;4228081;27;20105;-60
2022/02/14 03:37:26;;;;;;;6.25;3.40;;;14.80;61.00;;;;;;4227825;28;20139;-60
2022/02/14 03:39:48;;;;;;;4.25;2.75;;;14.80;61.20;;;;;;4221212;27;20048;-60
2022/02/14 03:42:11;;;;;;;6.57;2.95;;;14.70;61.40;;;;;;4210986;28;20495;-59
2022/02/14 03:44:33;;;;;;;6.75;3.20;;;14.80;61.90;;;;;;4211100;28;20610;-59
2022/02/14 03:46:55;;;;;;;6.50;3.00;;;14.70;61.50;;;;;;4210522;28;20133;-59
2022/02/14 03:49:19;;;;;;;4.53;2.78;;;14.70;61.50;;;;;;4212195;28;20051;-59
2022/02/14 03:51:43;;;;;;;9.45;3.25;;;14.80;61.40;;;;;;4210624;28;20082;-60
2022/02/14 03:54:05;;;;;;;7.20;3.40;;;14.80;61.30;;;;;;4211032;28;20066;-60
2022/02/14 03:56:28;;;;;;;3.70;2.38;;;14.80;61.30;;;;;;4209192;28;20114;-60
2022/02/14 03:58:50;;;;;;;5.15;3.20;;;14.70;61.20;;;;;;4209763;28;20044;-59
2022/02/14 04:01:11;;;;;;;6.65;2.78;;;14.70;61.30;;;;;;4193336;28;20051;-59
2022/02/14 04:03:34;;;;;;;8.70;2.90;;;14.70;61.50;;;;;;4192800;28;20051;-60
2022/02/14 04:05:57;;;;;;;10.40;3.17;;;14.70;61.50;;;;;;4197329;28;20101;-60
2022/02/14 04:08:20;;;;;;;7.25;2.50;;;14.70;61.40;;;;;;4210204;28;20140;-59
2022/02/14 04:10:42;;;;;;;5.47;2.80;;;14.70;61.60;;;;;;4209481;28;20059;-60
2022/02/14 04:13:04;;;;;;;4.88;2.75;;;14.70;61.80;;;;;;4209450;28;20080;-59
2022/02/14 04:15:26;;;;;;;13.38;2.97;;;14.70;61.80;;;;;;4209615;28;20054;-60
2022/02/14 04:17:49;;;;;;;9.02;2.30;;;14.70;61.70;;;;;;4210393;28;20056;-59
2022/02/14 04:20:12;;;;;;;6.13;3.20;;;14.70;61.70;;;;;;4210150;28;20047;-59
2022/02/14 04:22:37;;;;;;;6.70;2.60;;;14.70;61.80;;;;;;4193593;28;20381;-59
2022/02/14 04:24:59;;;;;;;9.70;3.08;;;14.70;61.70;;;;;;4226223;28;20555;-60
2022/02/14 04:27:23;;;;;;;5.53;2.85;;;14.70;62.00;;;;;;4227221;27;20096;-59
2022/02/14 04:29:45;;;;;;;9.23;2.60;;;14.70;62.00;;;;;;4219310;27;20101;-59
2022/02/14 04:32:08;;;;;;;6.68;3.03;;;14.70;61.90;;;;;;4210120;28;20054;-60
2022/02/14 04:34:30;;;;;;;4.13;2.40;;;14.70;61.90;;;;;;4208768;28;20055;-60
2022/02/14 04:36:52;;;;;;;7.95;3.08;;;14.70;61.90;;;;;;4209935;28;20052;-59
2022/02/14 04:39:16;;;;;;;9.38;2.58;;;14.60;61.90;;;;;;4208109;28;20052;-59
2022/02/14 04:41:38;;;;;;;2.58;2.30;;;14.70;62.10;;;;;;4193174;28;20044;-59
2022/02/14 04:44:00;;;;;;;4.55;2.63;;;14.60;62.00;;;;;;4193067;28;20075;-59
2022/02/14 04:46:22;;;;;;;4.05;2.22;;;14.70;62.20;;;;;;4193311;28;20067;-59
2022/02/14 04:48:44;;;;;;;5.28;2.33;;;14.70;62.20;;;;;;4193000;28;20269;-60
2022/02/14 04:51:06;;;;;;;5.30;2.78;;;14.70;62.40;;;;;;4176145;28;20063;-60
2022/02/14 04:53:28;;;;;;;5.20;2.60;;;14.70;62.50;;;;;;4176723;28;20055;-60
2022/02/14 04:55:52;;;;;;;4.32;3.00;;;14.60;62.30;;;;;;4193093;28;20058;-59
2022/02/14 04:58:14;;;;;;;4.90;2.47;;;14.70;62.40;;;;;;4201438;28;20492;-59
2022/02/14 05:00:36;;;;;;;4.88;2.70;;;14.60;62.50;;;;;;4209277;28;20151;-60
2022/02/14 05:02:58;;;;;;;5.07;2.25;;;14.70;62.50;;;;;;4193209;28;20044;-59
2022/02/14 05:05:21;;;;;;;6.30;2.50;;;14.60;62.50;;;;;;4192928;28;20044;-60
2022/02/14 05:07:43;;;;;;;5.57;2.45;;;14.60;62.50;;;;;;4209683;28;20052;-59
2022/02/14 05:10:06;;;;;;;9.73;2.42;;;14.70;62.70;;;;;;4209005;28;20074;-59
2022/02/14 05:12:30;;;;;;;4.50;1.98;;;14.70;62.70;;;;;;4209502;28;20486;-59
2022/02/14 05:14:52;;;;;;;4.72;2.35;;;14.60;62.60;;;;;;4213707;27;20124;-60
2022/02/14 05:17:15;;;;;;;4.40;2.30;;;14.60;62.60;;;;;;4226293;28;20047;-59
2022/02/14 05:19:37;;;;;;;8.00;2.92;;;14.70;63.60;;;;;;4216269;28;20063;-60
2022/02/14 05:22:01;;;;;;;5.22;2.65;;;14.60;62.60;;;;;;4209163;28;20047;-60
2022/02/14 05:24:22;;;;;;;9.85;2.33;;;14.60;62.60;;;;;;4207471;28;20085;-60
2022/02/14 05:26:44;;;;;;;6.78;2.78;;;14.60;62.60;;;;;;4176041;28;20041;-59
2022/02/14 05:29:08;;;;;;;6.15;2.88;;;14.60;62.60;;;;;;4175963;28;20051;-60
2022/02/14 05:31:30;;;;;;;7.75;2.60;;;14.60;62.60;;;;;;4181536;28;20053;-60
2022/02/14 05:33:53;;;;;;;5.18;1.98;;;14.60;62.30;;;;;;4225995;27;20082;-59
2022/02/14 05:36:15;;;;;;;6.20;2.28;;;14.60;62.70;;;;;;4208706;28;20062;-59
2022/02/14 05:38:37;;;;;;;2.50;2.30;;;14.60;62.70;;;;;;4208872;28;20070;-59
2022/02/14 05:40:59;;;;;;;2.67;1.95;;;14.60;62.80;;;;;;4209320;28;20056;-60
2022/02/14 05:43:21;;;;;;;6.03;2.58;;;14.60;63.00;;;;;;4209179;28;20055;-59
2022/02/14 05:45:44;;;;;;;6.47;2.30;;;14.60;62.80;;;;;;4209023;28;20047;-59
2022/02/14 05:48:08;;;;;;;4.40;2.40;;;14.60;63.70;;;;;;4208871;28;20145;-60
2022/02/14 05:50:30;;;;;;;8.73;1.95;;;14.60;63.70;;;;;;4190946;28;20050;-59
2022/02/14 05:52:53;;;;;;;4.45;2.50;;;14.60;62.90;;;;;;4192514;28;20132;-59
2022/02/14 05:55:16;;;;;;;5.75;2.30;;;14.60;62.80;;;;;;4199182;28;20051;-59
2022/02/14 05:57:38;;;;;;;3.50;1.88;;;14.60;62.90;;;;;;4207686;28;20055;-59
2022/02/14 06:00:00;;;;;;;5.68;2.42;;;14.60;62.90;;;;;;4207713;28;20089;-59
2022/02/14 06:02:26;;;;;;;7.80;2.35;;;14.60;62.90;;;;;;4209298;28;20059;-59
2022/02/14 06:04:48;;;;;;;5.90;2.58;;;14.60;62.90;;;;;;4208689;28;20051;-60
2022/02/14 06:07:11;;;;;;;3.58;2.30;;;14.60;62.80;;;;;;4210043;28;20056;-59
2022/02/14 06:09:33;;;;;;;7.55;2.75;;;14.60;62.80;;;;;;4208918;28;20059;-58
2022/02/14 06:11:57;;;;;;;2.47;2.28;;;14.60;62.80;;;;;;4208490;28;20055;-59
2022/02/14 06:14:20;;;;;;;4.65;2.47;;;14.50;62.90;;;;;;4212202;28;20078;-59
2022/02/14 06:16:43;;;;;;;5.85;2.45;;;14.60;63.10;;;;;;4194966;28;20054;-59
2022/02/14 06:19:06;;;;;;;4.93;2.03;;;14.60;62.90;;;;;;4178745;28;20106;-59
2022/02/14 06:21:28;;;;;;;3.05;1.90;;;14.60;63.60;;;;;;4178822;28;20139;-59
2022/02/14 06:23:51;;;;;;;3.97;1.83;;;14.60;63.10;;;;;;4192688;28;20048;-59
2022/02/14 06:26:13;;;;;;;3.95;2.08;;;14.60;63.10;;;;;;4195302;28;20045;-59
2022/02/14 06:28:38;;;;;;;5.53;2.20;;;14.50;63.10;;;;;;4195206;28;20452;-59
2022/02/14 06:31:00;;;;;;;5.03;1.48;;;14.50;63.30;;;;;;4195410;28;20403;-59
2022/02/14 06:33:22;;;;;;;2.75;1.90;;;14.50;63.30;;;;;;4210705;28;20115;-59
2022/02/14 06:35:46;;;;;;;7.13;2.63;;;14.50;63.30;;;;;;4212086;28;20040;-59
2022/02/14 06:38:09;;;;;;;3.63;2.03;;;14.60;63.50;;;;;;4211710;28;20467;-60
2022/02/14 06:40:35;;;;;;;2.53;1.98;;;14.50;63.40;;;;;;4219286;28;20432;-59
2022/02/14 06:42:57;;;;;;;5.28;2.13;;;14.50;63.30;;;;;;4228796;27;20128;-59
2022/02/14 06:45:20;;;;;;;4.03;2.00;;;14.50;63.10;;;;;;4195240;28;20059;-59
2022/02/14 06:47:47;;;;;;;10.48;2.30;;;14.50;64.10;;;;;;4195051;28;20068;-59
2022/02/14 06:50:10;;;;;;;3.45;2.03;;;14.50;63.30;;;;;;4178323;28;20045;-60
2022/02/14 06:52:33;;;;;;;4.85;2.30;;;14.50;63.40;;;;;;4188589;28;20044;-59
2022/02/14 06:54:56;;;;;;;4.95;1.95;;;14.50;63.40;;;;;;4194742;28;20407;-58
2022/02/14 06:57:18;;;;;;;5.35;1.95;;;14.50;63.30;;;;;;4202671;28;20056;-60
2022/02/14 06:59:40;;;;;;;5.53;2.00;;;14.50;63.40;;;;;;4227716;27;20051;-59
2022/02/14 07:02:03;;;;;;;5.00;2.08;;;14.50;63.30;;;;;;4222001;27;20044;-60
2022/02/14 07:04:25;;;;;;;4.00;2.13;;;14.50;63.00;;;;;;4211446;28;20364;-59
2022/02/14 07:06:48;;;;;;;2.55;1.83;;;14.50;63.10;;;;;;4194593;28;20515;-59
2022/02/14 07:09:11;;;;;;;7.05;2.13;;;14.50;63.30;;;;;;4194278;28;20454;-59
2022/02/14 07:11:33;;;;;;;4.72;2.15;;;14.50;63.40;;;;;;4195973;28;20060;-59
2022/02/14 07:13:55;;;;;;;5.88;2.08;;;14.50;63.40;;;;;;4179803;28;20476;-59
2022/02/14 07:16:18;;;;;;;3.33;2.13;;;14.50;63.60;;;;;;4211683;27;20044;-60
2022/02/14 07:18:40;;;;;;;5.57;2.65;;;14.50;64.20;;;;;;4211396;28;20384;-59
2022/02/14 07:21:02;;;;;;;3.90;1.67;;;14.50;64.20;;;;;;4194543;28;20067;-60
2022/02/14 07:23:24;;;;;;;2.47;1.90;;;14.60;64.10;;;;;;4186892;28;20135;-60
2022/02/14 07:25:48;;;;;;;4.03;2.10;;;14.60;64.00;;;;;;4177016;28;20059;-60
2022/02/14 07:28:11;;;;;;;2.13;1.80;;;14.60;63.70;;;;;;4201121;28;20063;-60
2022/02/14 07:30:33;;;;;;;4.63;2.22;;;14.60;63.70;;;;;;4211279;28;20044;-60
2022/02/14 07:32:56;;;;;;;2.40;1.38;;;14.60;63.90;;;;;;4212500;27;20537;-60
2022/02/14 07:35:18;;;;;;;2.97;1.63;;;14.50;63.90;;;;;;4197244;28;20131;-58
2022/02/14 07:37:42;;;;;;;3.75;1.95;;;14.60;63.90;;;;;;4190455;28;20417;-60
2022/02/14 07:40:07;;;;;;;3.92;1.73;;;14.50;63.90;;;;;;4191315;28;20041;-59
2022/02/14 07:42:31;;;;;;;2.92;1.63;;;14.60;64.00;;;;;;4193998;28;20527;-58
2022/02/14 07:44:54;;;;;;;3.42;1.95;;;14.50;64.10;;;;;;4194379;28;20549;-60
2022/02/14 07:47:17;;;;;;;5.80;2.00;;;14.50;64.50;;;;;;4210574;28;20106;-59
2022/02/14 07:49:39;;;;;;;6.05;2.30;;;14.50;64.10;;;;;;4215423;28;20059;-60
2022/02/14 07:52:02;;;;;;;1.92;1.67;;;14.50;64.60;;;;;;4227541;27;20096;-61
2022/02/14 07:54:24;;;;;;;3.85;2.00;;;14.60;65.10;;;;;;4210585;28;20458;-60
2022/02/14 07:56:46;;;;;;;4.57;1.75;;;14.60;64.90;;;;;;4226081;28;20045;-60
2022/02/14 07:59:09;;;;;;;6.07;2.30;;;14.70;64.70;;;;;;4227425;28;20439;-60
2022/02/14 08:01:33;;;;;;;2.10;1.70;;;14.60;64.50;;;;;;4227407;27;20160;-59
2022/02/14 08:03:55;;;;;;;1.25;1.08;;;14.60;64.60;;;;;;4227636;27;20626;-60
2022/02/14 08:06:25;;;;;;;5.45;3.05;;;14.70;64.80;;;;;;4225974;27;20050;-60
2022/02/14 08:08:48;;;;;;;3.50;1.92;;;14.70;64.90;;;;;;4227402;27;20047;-59
2022/02/14 08:11:10;;;;;;;2.72;1.95;;;14.60;64.70;;;;;;4227155;28;20052;-59
2022/02/14 08:13:34;;;;;;;1.90;1.80;;;14.70;64.60;;;;;;4226747;27;20048;-59
2022/02/14 08:15:58;;;;;;;3.92;2.05;;;14.60;64.50;;;;;;4227099;27;20104;-59
2022/02/14 08:18:19;;;;;;;3.47;1.85;;;14.70;64.60;;;;;;4226839;27;20043;-60
2022/02/14 08:20:42;;;;;;;2.55;1.83;;;14.60;64.60;;;;;;4225691;28;20136;-59
2022/02/14 08:23:07;;;;;;;3.08;1.67;;;14.60;64.70;;;;;;4207459;28;20483;-60
2022/02/14 08:25:30;;;;;;;3.58;1.90;;;14.60;64.50;;;;;;4209755;28;20463;-59
2022/02/14 08:27:52;;;;;;;2.10;1.90;;;14.60;64.50;;;;;;4195135;28;20037;-60
2022/02/14 08:30:14;;;;;;;3.42;1.98;;;14.60;64.70;;;;;;4209404;28;20066;-60
2022/02/14 08:32:38;;;;;;;3.08;2.40;;;14.60;64.70;;;;;;4209879;28;20056;-60
2022/02/14 08:35:01;;;;;;;2.05;1.63;;;14.60;64.70;;;;;;4209374;28;20518;-60
2022/02/14 08:37:23;;;;;;;3.65;2.22;;;14.60;64.90;;;;;;4197403;28;20483;-59
2022/02/14 08:39:45;;;;;;;2.92;2.05;;;14.60;64.80;;;;;;4209970;28;20070;-59
2022/02/14 08:42:08;;;;;;;2.20;1.52;;;14.60;64.90;;;;;;4209981;28;20101;-59
2022/02/14 08:44:30;;;;;;;5.65;1.77;;;14.50;64.80;;;;;;4207529;28;20528;-60
2022/02/14 08:46:53;;;;;;;2.05;1.52;;;14.50;64.90;;;;;;4209755;28;20048;-60
2022/02/14 08:49:17;;;;;;;2.58;2.00;;;14.50;65.00;;;;;;4208924;28;20468;-59
2022/02/14 08:51:39;;;;;;;4.40;1.60;;;14.50;65.00;;;;;;4214354;28;20410;-60
2022/02/14 08:54:01;;;;;;;3.20;2.10;;;14.50;65.00;;;;;;4224917;28;20109;-60
2022/02/14 08:56:24;;;;;;;3.72;1.85;;;14.50;65.10;;;;;;4182284;28;20052;-60
2022/02/14 08:58:46;;;;;;;4.53;1.70;;;14.50;65.20;;;;;;4209689;28;20096;-59
2022/02/14 09:01:11;;;;;;;1.83;1.73;;;14.50;65.30;;;;;;4210788;28;20093;-60
2022/02/14 09:03:33;;;;;;;2.60;1.83;;;14.50;65.30;;;;;;4199212;28;20067;-60
2022/02/14 09:05:57;;;;;;;3.40;1.98;;;14.50;65.30;;;;;;4209080;28;20411;-58
2022/02/14 09:08:22;;;;;;;3.15;2.60;;;14.50;65.40;;;;;;4209048;28;20154;-61
2022/02/14 09:10:44;;;;;;;3.85;1.75;;;14.50;65.40;;;;;;4209613;28;20050;-60
2022/02/14 09:13:06;;;;;;;1.73;1.42;;;14.50;65.40;;;;;;4209355;28;20062;-59
2022/02/14 09:15:32;;;;;;;3.92;1.88;;;14.60;65.50;;;;;;4209135;28;20048;-59
2022/02/14 09:17:54;;;;;;;5.07;2.13;;;14.60;65.30;;;;;;4209415;28;20065;-59
2022/02/14 09:20:22;;;;;;;7.50;2.03;;;14.70;65.30;;;;;;4209268;28;20047;-59
2022/02/14 09:22:46;;;;;;;2.85;1.50;;;14.80;65.10;;;;;;4209099;28;20058;-60
2022/02/14 09:25:09;;;;;;;2.80;1.60;;;14.80;64.90;;;;;;4209132;28;20058;-59
2022/02/14 09:27:32;;;;;;;3.38;2.22;;;14.80;64.70;;;;;;4208926;28;20071;-59
2022/02/14 09:29:54;;;;;;;3.10;1.83;;;14.90;64.70;;;;;;4192539;28;20491;-59
2022/02/14 09:32:17;;;;;;;2.85;1.75;;;14.90;64.70;;;;;;4209369;28;20044;-60
2022/02/14 09:34:39;;;;;;;3.03;1.95;;;14.90;64.60;;;;;;4192556;28;20114;-60
2022/02/14 09:37:01;;;;;;;2.47;2.08;;;14.90;64.80;;;;;;4209368;28;20051;-60
2022/02/14 09:39:29;;;;;;;3.28;1.60;;;14.90;64.70;;;;;;4208420;28;20048;-60
2022/02/14 09:41:52;;;;;;;2.00;1.70;;;14.90;64.80;;;;;;4209107;28;20047;-60
2022/02/14 09:44:15;;;;;;;1.65;1.42;;;14.90;64.70;;;;;;4209313;28;20086;-59
2022/02/14 09:46:39;;;;;;;3.03;2.00;;;14.90;64.70;;;;;;4208747;28;20068;-60
2022/02/14 09:49:03;;;;;;;3.13;1.73;;;14.90;64.70;;;;;;4208891;28;20062;-60
2022/02/14 09:51:25;;;;;;;2.35;1.45;;;14.90;64.80;;;;;;4208957;28;20060;-60
2022/02/14 09:53:47;;;;;;;6.50;1.90;;;14.90;64.80;;;;;;4209246;28;20433;-60
2022/02/14 09:56:12;;;;;;;1.60;1.50;;;14.90;64.80;;;;;;4192384;28;20458;-60
2022/02/14 09:58:34;;;;;;;2.83;1.85;;;14.90;65.00;;;;;;4197764;28;20078;-60
2022/02/14 10:00:57;;;;;;;5.43;1.90;;;14.90;65.20;;;;;;4208980;28;20109;-60
2022/02/14 10:03:22;;;;;;;1.70;1.60;;;14.90;65.30;;;;;;4208890;28;20507;-60
2022/02/14 10:05:47;;;;;;;2.72;1.73;;;14.90;65.60;;;;;;4207599;28;20044;-60
2022/02/14 10:08:10;;;;;;;1.80;1.70;;;14.90;66.20;;;;;;4208779;28;20048;-61
2022/02/14 10:10:32;;;;;;;3.35;1.98;;;14.90;66.20;;;;;;4192394;28;20117;-61
2022/02/14 10:12:59;;;;;;;3.20;2.00;;;14.90;66.30;;;;;;4196443;28;20495;-61
2022/02/14 10:15:21;;;;;;;2.28;2.05;;;14.90;67.20;;;;;;4198682;28;20048;-61
2022/02/14 10:17:46;;;;;;;5.97;2.15;;;14.80;66.20;;;;;;4208324;28;20507;-61
2022/02/14 10:20:10;;;;;;;2.00;1.90;;;14.80;66.70;;;;;;4204914;28;20051;-61
2022/02/14 10:22:33;;;;;;;4.85;1.90;;;14.80;66.50;;;;;;4207127;28;20117;-60
2022/02/14 10:24:55;;;;;;;3.42;2.28;;;14.80;66.90;;;;;;4209165;28;20044;-61
2022/02/14 10:27:17;;;;;;;3.42;2.03;;;14.70;67.00;;;;;;4191995;28;20060;-60
2022/02/14 10:29:42;;;;;;;3.42;1.98;;;14.70;66.90;;;;;;4191854;28;20365;-60
2022/02/14 10:32:09;;;;;;;2.05;1.90;;;14.70;67.20;;;;;;4193098;28;20140;-60
2022/02/14 10:34:37;;;;;;;4.82;2.00;;;14.70;67.30;;;;;;4194964;28;20458;-60
2022/02/14 10:37:02;;;;;;;3.17;1.92;;;14.70;67.30;;;;;;4184557;28;20066;-60
2022/02/14 10:39:26;;;;;;;2.25;1.55;;;14.60;67.30;;;;;;4208416;27;20054;-60
2022/02/14 10:41:50;;;;;;;2.28;1.60;;;14.70;67.70;;;;;;4204908;28;20134;-60
2022/02/14 10:45:07;;;;;;;3.17;1.60;;;14.70;67.80;;;;;;4196285;28;20407;-60
2022/02/14 10:47:07;;;;;;;2.78;1.40;;;14.70;67.80;;;;;;4208006;27;20047;-60
2022/02/14 10:49:29;;;;;;;1.20;1.02;;;14.70;67.80;;;;;;4208194;27;20052;-60
2022/02/14 10:51:53;;;;;;;3.63;1.70;;;14.60;67.70;;;;;;4208928;27;20058;-60
2022/02/14 10:54:15;;;;;;;2.30;1.65;;;14.60;67.80;;;;;;4208624;28;20040;-60
2022/02/14 10:56:41;;;;;;;2.45;1.50;;;14.60;67.80;;;;;;4208702;28;20055;-60
2022/02/14 10:59:11;;;;;;;3.83;1.38;;;14.60;67.90;;;;;;4208673;28;20124;-60
2022/02/14 11:01:34;;;;;;;3.03;1.13;;;14.60;67.90;;;;;;4211284;28;20040;-60
2022/02/14 11:03:57;;;;;;;5.63;1.60;;;14.60;67.80;;;;;;4194936;28;20055;-60
2022/02/14 11:06:19;;;;;;;3.10;1.20;;;14.60;67.90;;;;;;4194736;28;20040;-60
2022/02/14 11:08:44;;;;;;;5.22;1.58;;;14.60;67.90;;;;;;4194427;28;20048;-61
2022/02/14 11:11:09;;;;;;;2.00;1.17;;;14.60;68.00;;;;;;4214707;28;20050;-59
2022/02/14 11:13:32;;;;;;;2.53;1.38;;;14.60;68.10;;;;;;4214016;28;20101;-60
2022/02/14 11:15:55;;;;;;;1.90;1.42;;;14.60;68.20;;;;;;4194607;28;20044;-60
2022/02/14 11:18:19;;;;;;;3.55;1.33;;;14.60;68.10;;;;;;4194574;28;20052;-59
2022/02/14 11:20:44;;;;;;;4.95;1.73;;;14.60;68.20;;;;;;4198454;28;20052;-60
2022/02/14 11:23:10;;;;;;;3.47;1.30;;;14.60;68.20;;;;;;4194334;28;20518;-60
2022/02/14 11:25:37;;;;;;;3.30;1.25;;;14.60;68.40;;;;;;4194140;28;20215;-59
2022/02/14 11:28:02;;;;;;;2.50;1.25;;;14.60;68.30;;;;;;4194142;28;20051;-60
2022/02/14 11:30:27;;;;;;;1.40;1.30;;;14.60;69.30;;;;;;4193930;28;20044;-60
2022/02/14 11:33:09;;;;;;;1.48;1.27;;;14.60;68.40;;;;;;4193993;28;20055;-59
2022/02/14 11:35:31;;;;;;;4.90;1.50;;;14.70;68.60;;;;;;4210079;28;20126;-59
2022/02/14 11:37:58;;;;;;;2.65;1.50;;;14.70;68.60;;;;;;4201384;27;20048;-60
2022/02/14 11:40:33;;;;;;;4.10;1.73;;;14.70;68.70;;;;;;4217065;28;20444;-60
2022/02/14 11:43:09;;;;;;;1.70;1.60;;;14.60;68.80;;;;;;4224327;28;20048;-60
2022/02/14 11:45:32;;;;;;;3.10;1.63;;;14.70;68.80;;;;;;4196438;28;20090;-59
2022/02/14 11:47:56;;;;;;;3.80;1.70;;;14.70;68.80;;;;;;4210807;28;20052;-59
2022/02/14 11:50:39;;;;;;;2.85;1.58;;;14.60;68.80;;;;;;4208829;28;20052;-60
2022/02/14 11:53:33;;;;;;;1.20;1.10;;;14.60;68.80;;;;;;4209013;28;20134;-59
2022/02/14 11:56:29;;;;;;;3.60;2.30;;;14.60;68.90;;;;;;4213554;28;20047;-54
2022/02/14 11:59:12;;;;;;;2.13;1.70;;;14.60;69.00;;;;;;4209885;28;20058;-59
2022/02/14 12:01:36;;;;;;;3.05;1.77;;;14.60;71.10;;;;;;4210024;28;20483;-60
2022/02/14 12:04:40;;;;;;;4.80;1.70;;;14.60;70.20;;;;;;4192621;28;20067;-59
2022/02/14 12:07:36;;;;;;;3.45;2.05;;;14.70;70.10;;;;;;4191458;28;20064;-59
2022/02/14 12:10:21;;;;;;;3.45;1.92;;;14.70;69.80;;;;;;4198162;28;20071;-58
2022/02/14 12:13:12;;;;;;;5.90;2.20;;;14.70;69.70;;;;;;4226984;28;20056;-59
2022/02/14 12:21:07;;;;;;;2.70;2.10;;;14.60;69.60;;;;;;4210027;28;20127;-59
2022/02/14 12:23:51;;;;;;;3.00;2.15;;;14.60;69.40;;;;;;4210263;28;20398;-58
2022/02/14 12:26:17;;;;;;;4.07;2.20;;;14.60;69.40;;;;;;4209642;28;20044;-59
2022/02/14 12:28:42;;;;;;;3.38;2.20;;;14.70;69.50;;;;;;4226874;27;20074;-58
2022/02/14 12:31:05;;;;;;;3.15;2.65;;;14.60;69.60;;;;;;4226852;27;20071;-58
2022/02/14 12:33:28;;;;;;;3.17;2.17;;;14.60;69.60;;;;;;4226929;27;20060;-58
2022/02/14 12:35:53;;;;;;;3.38;2.35;;;14.60;69.70;;;;;;4221568;28;20058;-58